sensor_id;sensor_type;location;lat;lon;timestamp;pressure;altitude;pressure_sealevel;temperature;humidity
34370;BME280;20635;55.812;37.560;2023-02-19T00:01:38;97819.91;;;23.60;23.22
34370;BME280;20635;55.812;37.560;2023-02-19T00:04:14;97814.31;;;23.60;22.85
34370;BME280;20635;55.812;37.560;2023-02-19T00:06:40;97817.13;;;23.60;23.18
34370;BME280;20635;55.812;37.560;2023-02-19T00:09:09;97811.53;;;23.60;23.06
34370;BME280;20635;55.812;37.560;2023-02-19T00:11:36;97805.94;;;23.60;23.07
34370;BME280;20635;55.812;37.560;2023-02-19T00:14:03;97807.56;;;23.61;23.03
34370;BME280;20635;55.812;37.560;2023-02-19T00:16:31;97802.34;;;23.59;22.98
34370;BME280;20635;55.812;37.560;2023-02-19T00:18:58;97806.75;;;23.60;23.11
34370;BME280;20635;55.812;37.560;2023-02-19T00:21:25;97799.53;;;23.59;23.01
34370;BME280;20635;55.812;37.560;2023-02-19T00:23:54;97796.38;;;23.61;23.00
34370;BME280;20635;55.812;37.560;2023-02-19T00:26:20;97790.78;;;23.61;22.95
34370;BME280;20635;55.812;37.560;2023-02-19T00:28:49;97800.78;;;23.62;22.98
34370;BME280;20635;55.812;37.560;2023-02-19T00:31:24;97795.19;;;23.62;22.85
34370;BME280;20635;55.812;37.560;2023-02-19T00:33:53;97800.78;;;23.62;22.77
34370;BME280;20635;55.812;37.560;2023-02-19T00:36:20;97793.56;;;23.61;22.75
34370;BME280;20635;55.812;37.560;2023-02-19T00:38:46;97793.56;;;23.61;23.10
34370;BME280;20635;55.812;37.560;2023-02-19T00:41:13;97795.56;;;23.60;22.67
34370;BME280;20635;55.812;37.560;2023-02-19T00:46:23;97791.25;;;23.63;23.15
34370;BME280;20635;55.812;37.560;2023-02-19T00:48:49;97779.59;;;23.61;22.94
34370;BME280;20635;55.812;37.560;2023-02-19T00:51:17;97774.38;;;23.59;22.76
34370;BME280;20635;55.812;37.560;2023-02-19T00:53:44;97770.78;;;23.59;22.58
34370;BME280;20635;55.812;37.560;2023-02-19T00:56:10;97768.41;;;23.61;22.66
34370;BME280;20635;55.812;37.560;2023-02-19T00:58:36;97759.59;;;23.59;22.68
34370;BME280;20635;55.812;37.560;2023-02-19T01:01:02;97755.63;;;23.60;23.00
34370;BME280;20635;55.812;37.560;2023-02-19T01:03:30;97757.59;;;23.59;22.66
34370;BME280;20635;55.812;37.560;2023-02-19T01:05:55;97764.00;;;23.60;22.89
34370;BME280;20635;55.812;37.560;2023-02-19T01:08:21;97741.63;;;23.60;22.87
34370;BME280;20635;55.812;37.560;2023-02-19T01:10:49;97744.81;;;23.58;22.62
34370;BME280;20635;55.812;37.560;2023-02-19T01:13:15;97738.41;;;23.58;22.85
34370;BME280;20635;55.812;37.560;2023-02-19T01:15:41;97740.81;;;23.59;22.71
34370;BME280;20635;55.812;37.560;2023-02-19T01:18:07;97738.84;;;23.60;22.86
34370;BME280;20635;55.812;37.560;2023-02-19T01:20:33;97729.66;;;23.59;22.93
34370;BME280;20635;55.812;37.560;2023-02-19T01:22:59;97736.03;;;23.60;23.09
34370;BME280;20635;55.812;37.560;2023-02-19T01:25:25;97737.66;;;23.61;23.07
34370;BME280;20635;55.812;37.560;2023-02-19T01:27:51;97731.25;;;23.60;23.30
34370;BME280;20635;55.812;37.560;2023-02-19T01:30:17;97730.88;;;23.62;23.22
34370;BME280;20635;55.812;37.560;2023-02-19T01:32:43;97730.88;;;23.62;23.30
34370;BME280;20635;55.812;37.560;2023-02-19T01:35:09;97726.94;;;23.63;23.15
34370;BME280;20635;55.812;37.560;2023-02-19T01:37:35;97721.00;;;23.64;23.27
34370;BME280;20635;55.812;37.560;2023-02-19T01:40:02;97721.00;;;23.64;23.01
34370;BME280;20635;55.812;37.560;2023-02-19T01:42:28;97722.94;;;23.64;23.12
34370;BME280;20635;55.812;37.560;2023-02-19T01:50:48;97727.47;;;23.68;23.10
34370;BME280;20635;55.812;37.560;2023-02-19T01:53:19;97720.28;;;23.67;23.13
34370;BME280;20635;55.812;37.560;2023-02-19T01:55:47;97721.41;;;23.66;22.82
34370;BME280;20635;55.812;37.560;2023-02-19T01:58:16;97723.06;;;23.67;22.91
34370;BME280;20635;55.812;37.560;2023-02-19T02:00:42;97714.69;;;23.67;22.99
34370;BME280;20635;55.812;37.560;2023-02-19T02:03:08;97722.25;;;23.67;22.72
34370;BME280;20635;55.812;37.560;2023-02-19T02:08:26;97723.88;;;23.68;22.88
34370;BME280;20635;55.812;37.560;2023-02-19T02:11:10;97711.50;;;23.69;23.15
34370;BME280;20635;55.812;37.560;2023-02-19T02:13:37;97717.91;;;23.69;23.10
34370;BME280;20635;55.812;37.560;2023-02-19T02:16:50;97713.56;;;23.72;23.48
34370;BME280;20635;55.812;37.560;2023-02-19T02:19:52;97716.78;;;23.74;23.32
34370;BME280;20635;55.812;37.560;2023-02-19T02:22:43;97715.63;;;23.75;23.21
34370;BME280;20635;55.812;37.560;2023-02-19T02:27:50;97704.38;;;23.71;23.08
34370;BME280;20635;55.812;37.560;2023-02-19T02:33:20;97707.22;;;23.75;23.22
34370;BME280;20635;55.812;37.560;2023-02-19T02:35:56;97712.09;;;23.78;23.17
34370;BME280;20635;55.812;37.560;2023-02-19T02:38:26;97702.81;;;23.74;23.13
34370;BME280;20635;55.812;37.560;2023-02-19T02:40:54;97702.00;;;23.73;23.06
34370;BME280;20635;55.812;37.560;2023-02-19T02:43:20;97705.19;;;23.72;23.02
34370;BME280;20635;55.812;37.560;2023-02-19T02:45:46;97700.75;;;23.71;23.18
34370;BME280;20635;55.812;37.560;2023-02-19T02:48:33;97696.91;;;23.79;22.85
34370;BME280;20635;55.812;37.560;2023-02-19T02:51:13;97688.03;;;23.73;22.87
34370;BME280;20635;55.812;37.560;2023-02-19T02:53:53;97688.03;;;23.73;23.12
34370;BME280;20635;55.812;37.560;2023-02-19T02:56:40;97692.00;;;23.72;23.23
34370;BME280;20635;55.812;37.560;2023-02-19T02:59:09;97688.75;;;23.70;22.72
34370;BME280;20635;55.812;37.560;2023-02-19T03:01:46;97694.00;;;23.72;22.90
34370;BME280;20635;55.812;37.560;2023-02-19T03:08:13;97682.88;;;23.75;23.09
34370;BME280;20635;55.812;37.560;2023-02-19T03:10:46;97689.22;;;23.72;22.74
34370;BME280;20635;55.812;37.560;2023-02-19T03:13:29;97690.00;;;23.73;22.91
34370;BME280;20635;55.812;37.560;2023-02-19T03:16:19;97688.03;;;23.73;22.76
34370;BME280;20635;55.812;37.560;2023-02-19T03:19:07;97687.22;;;23.73;22.85
34370;BME280;20635;55.812;37.560;2023-02-19T03:21:51;97688.84;;;23.74;22.82
34370;BME280;20635;55.812;37.560;2023-02-19T03:24:27;97680.44;;;23.74;22.97
34370;BME280;20635;55.812;37.560;2023-02-19T03:27:13;97676.03;;;23.73;22.89
34370;BME280;20635;55.812;37.560;2023-02-19T03:29:46;97678.03;;;23.72;22.73
34370;BME280;20635;55.812;37.560;2023-02-19T03:32:19;97681.63;;;23.73;22.69
34370;BME280;20635;55.812;37.560;2023-02-19T03:34:51;97673.25;;;23.73;23.09
34370;BME280;20635;55.812;37.560;2023-02-19T03:37:32;97666.13;;;23.75;22.94
34370;BME280;20635;55.812;37.560;2023-02-19T03:40:01;97672.44;;;23.72;22.68
34370;BME280;20635;55.812;37.560;2023-02-19T03:42:30;97668.81;;;23.72;22.90
34370;BME280;20635;55.812;37.560;2023-02-19T03:48:09;97659.69;;;23.75;22.91
34370;BME280;20635;55.812;37.560;2023-02-19T03:50:54;97656.09;;;23.74;22.88
34370;BME280;20635;55.812;37.560;2023-02-19T03:53:37;97658.88;;;23.74;22.54
34370;BME280;20635;55.812;37.560;2023-02-19T03:56:13;97659.63;;;23.71;22.51
34370;BME280;20635;55.812;37.560;2023-02-19T03:58:52;97666.03;;;23.72;22.72
34370;BME280;20635;55.812;37.560;2023-02-19T04:06:41;97663.59;;;23.70;22.63
34370;BME280;20635;55.812;37.560;2023-02-19T04:09:10;97663.59;;;23.70;22.84
34370;BME280;20635;55.812;37.560;2023-02-19T04:11:39;97648.81;;;23.70;22.59
34370;BME280;20635;55.812;37.560;2023-02-19T04:14:24;97650.06;;;23.72;22.83
34370;BME280;20635;55.812;37.560;2023-02-19T04:16:58;97652.06;;;23.72;22.39
34370;BME280;20635;55.812;37.560;2023-02-19T04:19:25;97655.19;;;23.70;22.48
34370;BME280;20635;55.812;37.560;2023-02-19T04:21:53;97646.81;;;23.70;22.67
34370;BME280;20635;55.812;37.560;2023-02-19T04:24:45;97647.19;;;23.69;22.39
34370;BME280;20635;55.812;37.560;2023-02-19T04:27:09;97644.00;;;23.70;22.51
34370;BME280;20635;55.812;37.560;2023-02-19T04:29:36;97634.00;;;23.69;22.63
34370;BME280;20635;55.812;37.560;2023-02-19T04:32:01;97649.59;;;23.70;22.36
34370;BME280;20635;55.812;37.560;2023-02-19T04:34:27;97649.59;;;23.70;22.46
34370;BME280;20635;55.812;37.560;2023-02-19T04:36:53;97649.59;;;23.70;22.39
34370;BME280;20635;55.812;37.560;2023-02-19T04:39:19;97646.00;;;23.70;22.63
34370;BME280;20635;55.812;37.560;2023-02-19T04:41:45;97640.41;;;23.70;22.47
34370;BME280;20635;55.812;37.560;2023-02-19T04:44:11;97643.22;;;23.70;22.50
34370;BME280;20635;55.812;37.560;2023-02-19T04:46:37;97636.81;;;23.69;22.31
34370;BME280;20635;55.812;37.560;2023-02-19T04:49:04;97634.41;;;23.68;22.42
34370;BME280;20635;55.812;37.560;2023-02-19T04:51:30;97636.81;;;23.69;22.32
34370;BME280;20635;55.812;37.560;2023-02-19T04:53:55;97635.19;;;23.68;22.46
34370;BME280;20635;55.812;37.560;2023-02-19T04:56:21;97638.00;;;23.68;22.21
34370;BME280;20635;55.812;37.560;2023-02-19T04:58:47;97638.81;;;23.69;22.34
34370;BME280;20635;55.812;37.560;2023-02-19T05:01:14;97633.22;;;23.69;22.27
34370;BME280;20635;55.812;37.560;2023-02-19T05:03:40;97636.81;;;23.69;22.34
34370;BME280;20635;55.812;37.560;2023-02-19T05:06:08;97631.22;;;23.69;22.61
34370;BME280;20635;55.812;37.560;2023-02-19T05:08:34;97626.44;;;23.70;22.53
34370;BME280;20635;55.812;37.560;2023-02-19T05:11:02;97636.44;;;23.71;22.75
34370;BME280;20635;55.812;37.560;2023-02-19T05:13:29;97627.22;;;23.70;22.71
34370;BME280;20635;55.812;37.560;2023-02-19T05:16:03;97624.44;;;23.70;22.85
34370;BME280;20635;55.812;37.560;2023-02-19T05:18:29;97626.88;;;23.72;22.80
34370;BME280;20635;55.812;37.560;2023-02-19T05:20:57;97623.28;;;23.71;22.82
34370;BME280;20635;55.812;37.560;2023-02-19T05:23:23;97621.66;;;23.70;22.48
34370;BME280;20635;55.812;37.560;2023-02-19T05:25:49;97621.28;;;23.72;22.15
34370;BME280;20635;55.812;37.560;2023-02-19T05:28:15;97610.47;;;23.70;22.47
34370;BME280;20635;55.812;37.560;2023-02-19T05:30:45;97611.25;;;23.71;22.34
34370;BME280;20635;55.812;37.560;2023-02-19T05:33:12;97613.72;;;23.72;22.31
34370;BME280;20635;55.812;37.560;2023-02-19T05:35:43;97611.25;;;23.71;22.33
34370;BME280;20635;55.812;37.560;2023-02-19T05:38:10;97605.66;;;23.71;22.24
34370;BME280;20635;55.812;37.560;2023-02-19T05:40:36;97600.91;;;23.71;22.57
34370;BME280;20635;55.812;37.560;2023-02-19T05:43:02;97604.53;;;23.72;22.74
34370;BME280;20635;55.812;37.560;2023-02-19T05:45:28;97598.91;;;23.72;22.47
34370;BME280;20635;55.812;37.560;2023-02-19T05:47:54;97605.31;;;23.72;22.56
34370;BME280;20635;55.812;37.560;2023-02-19T05:50:20;97604.53;;;23.72;22.65
34370;BME280;20635;55.812;37.560;2023-02-19T05:52:46;97600.06;;;23.71;22.78
34370;BME280;20635;55.812;37.560;2023-02-19T05:55:12;97604.53;;;23.72;22.41
34370;BME280;20635;55.812;37.560;2023-02-19T05:57:42;97605.66;;;23.71;22.50
34370;BME280;20635;55.812;37.560;2023-02-19T06:00:10;97600.53;;;23.73;22.65
34370;BME280;20635;55.812;37.560;2023-02-19T06:02:37;97597.28;;;23.71;22.45
34370;BME280;20635;55.812;37.560;2023-02-19T06:05:04;97598.13;;;23.71;22.51
34370;BME280;20635;55.812;37.560;2023-02-19T06:07:31;97601.25;;;23.70;22.12
34370;BME280;20635;55.812;37.560;2023-02-19T06:09:57;97597.66;;;23.69;22.29
34370;BME280;20635;55.812;37.560;2023-02-19T06:12:23;97596.47;;;23.70;22.23
34370;BME280;20635;55.812;37.560;2023-02-19T06:14:49;97598.47;;;23.70;22.13
34370;BME280;20635;55.812;37.560;2023-02-19T06:17:14;97593.69;;;23.70;22.12
34370;BME280;20635;55.812;37.560;2023-02-19T06:19:40;97588.09;;;23.70;21.95
34370;BME280;20635;55.812;37.560;2023-02-19T06:22:06;97598.47;;;23.70;22.27
34370;BME280;20635;55.812;37.560;2023-02-19T06:24:32;97602.06;;;23.70;21.92
34370;BME280;20635;55.812;37.560;2023-02-19T06:26:58;97595.66;;;23.70;22.13
34370;BME280;20635;55.812;37.560;2023-02-19T06:29:24;97590.88;;;23.70;21.83
34370;BME280;20635;55.812;37.560;2023-02-19T06:31:50;97598.47;;;23.70;21.89
34370;BME280;20635;55.812;37.560;2023-02-19T06:34:16;97595.66;;;23.70;21.78
34370;BME280;20635;55.812;37.560;2023-02-19T06:36:42;97600.06;;;23.71;21.79
34370;BME280;20635;55.812;37.560;2023-02-19T06:39:09;97595.66;;;23.70;21.96
34370;BME280;20635;55.812;37.560;2023-02-19T06:41:35;97591.25;;;23.69;21.73
34370;BME280;20635;55.812;37.560;2023-02-19T06:44:01;97581.69;;;23.70;21.91
34370;BME280;20635;55.812;37.560;2023-02-19T06:46:27;97581.69;;;23.70;21.71
34370;BME280;20635;55.812;37.560;2023-02-19T06:48:52;97577.72;;;23.71;21.89
34370;BME280;20635;55.812;37.560;2023-02-19T06:51:19;97584.50;;;23.70;21.53
34370;BME280;20635;55.812;37.560;2023-02-19T06:53:48;97581.69;;;23.70;21.77
34370;BME280;20635;55.812;37.560;2023-02-19T06:58:47;97580.88;;;23.69;21.32
34370;BME280;20635;55.812;37.560;2023-02-19T07:01:13;97581.69;;;23.70;21.63
34370;BME280;20635;55.812;37.560;2023-02-19T07:03:38;97564.09;;;23.69;21.75
34370;BME280;20635;55.812;37.560;2023-02-19T07:06:04;97563.31;;;23.69;21.68
34370;BME280;20635;55.812;37.560;2023-02-19T07:08:30;97564.09;;;23.69;21.57
34370;BME280;20635;55.812;37.560;2023-02-19T07:10:57;97565.69;;;23.67;21.24
34370;BME280;20635;55.812;37.560;2023-02-19T07:13:24;97561.25;;;23.66;21.63
34370;BME280;20635;55.812;37.560;2023-02-19T07:15:54;97556.84;;;23.65;21.62
34370;BME280;20635;55.812;37.560;2023-02-19T07:18:22;97556.03;;;23.64;21.10
34370;BME280;20635;55.812;37.560;2023-02-19T07:20:48;97552.78;;;23.62;21.46
34370;BME280;20635;55.812;37.560;2023-02-19T07:23:13;97550.78;;;23.63;21.23
34370;BME280;20635;55.812;37.560;2023-02-19T07:25:39;97541.59;;;23.62;21.49
34370;BME280;20635;55.812;37.560;2023-02-19T07:28:06;97546.75;;;23.60;21.50
34370;BME280;20635;55.812;37.560;2023-02-19T07:30:32;97542.75;;;23.61;21.63
34370;BME280;20635;55.812;37.560;2023-02-19T07:32:58;97553.94;;;23.61;21.16
34370;BME280;20635;55.812;37.560;2023-02-19T07:35:24;97541.53;;;23.59;21.19
34370;BME280;20635;55.812;37.560;2023-02-19T07:37:50;97542.72;;;23.58;21.45
34370;BME280;20635;55.812;37.560;2023-02-19T07:40:15;97533.50;;;23.57;21.44
34370;BME280;20635;55.812;37.560;2023-02-19T07:42:41;97532.69;;;23.57;21.04
34370;BME280;20635;55.812;37.560;2023-02-19T07:45:07;97532.69;;;23.57;21.27
34370;BME280;20635;55.812;37.560;2023-02-19T07:47:33;97531.88;;;23.56;21.41
34370;BME280;20635;55.812;37.560;2023-02-19T07:49:59;97528.28;;;23.55;21.22
34370;BME280;20635;55.812;37.560;2023-02-19T07:52:25;97523.88;;;23.54;21.09
34370;BME280;20635;55.812;37.560;2023-02-19T07:54:51;97525.88;;;23.54;21.45
34370;BME280;20635;55.812;37.560;2023-02-19T07:57:17;97528.66;;;23.54;21.42
34370;BME280;20635;55.812;37.560;2023-02-19T07:59:43;97521.81;;;23.51;21.20
34370;BME280;20635;55.812;37.560;2023-02-19T08:02:16;97523.88;;;23.54;21.04
34370;BME280;20635;55.812;37.560;2023-02-19T08:05:01;97525.94;;;23.58;21.26
34370;BME280;20635;55.812;37.560;2023-02-19T08:07:34;97513.88;;;23.53;21.09
34370;BME280;20635;55.812;37.560;2023-02-19T08:10:01;97507.84;;;23.51;21.21
34370;BME280;20635;55.812;37.560;2023-02-19T08:12:57;97511.09;;;23.53;21.11
34370;BME280;20635;55.812;37.560;2023-02-19T08:15:42;97513.00;;;23.49;21.20
34370;BME280;20635;55.812;37.560;2023-02-19T08:18:08;97508.59;;;23.48;21.33
34370;BME280;20635;55.812;37.560;2023-02-19T08:20:34;97515.34;;;23.47;20.97
34370;BME280;20635;55.812;37.560;2023-02-19T08:23:00;97506.63;;;23.49;21.24
34370;BME280;20635;55.812;37.560;2023-02-19T08:25:27;97505.81;;;23.48;21.33
34370;BME280;20635;55.812;37.560;2023-02-19T08:27:52;97505.81;;;23.48;21.28
34370;BME280;20635;55.812;37.560;2023-02-19T08:30:18;97512.22;;;23.49;20.97
34370;BME280;20635;55.812;37.560;2023-02-19T08:32:44;97501.38;;;23.47;21.06
34370;BME280;20635;55.812;37.560;2023-02-19T08:35:10;97504.16;;;23.47;20.82
34370;BME280;20635;55.812;37.560;2023-02-19T08:37:36;97498.22;;;23.49;21.16
34370;BME280;20635;55.812;37.560;2023-02-19T08:40:02;97501.38;;;23.47;20.98
34370;BME280;20635;55.812;37.560;2023-02-19T08:42:28;97505.81;;;23.48;21.18
34370;BME280;20635;55.812;37.560;2023-02-19T08:44:54;97503.00;;;23.48;21.24
34370;BME280;20635;55.812;37.560;2023-02-19T08:47:19;97503.00;;;23.48;21.15
34370;BME280;20635;55.812;37.560;2023-02-19T08:49:45;97512.22;;;23.49;21.09
34370;BME280;20635;55.812;37.560;2023-02-19T08:52:11;97496.25;;;23.49;20.78
34370;BME280;20635;55.812;37.560;2023-02-19T08:54:37;97497.03;;;23.50;21.08
34370;BME280;20635;55.812;37.560;2023-02-19T08:57:03;97488.66;;;23.50;21.16
34370;BME280;20635;55.812;37.560;2023-02-19T08:59:30;97488.66;;;23.50;21.31
34370;BME280;20635;55.812;37.560;2023-02-19T09:01:59;97490.28;;;23.51;21.25
34370;BME280;20635;55.812;37.560;2023-02-19T09:04:25;97495.06;;;23.50;21.27
34370;BME280;20635;55.812;37.560;2023-02-19T09:06:52;97489.47;;;23.50;21.30
34370;BME280;20635;55.812;37.560;2023-02-19T09:09:18;97488.28;;;23.51;20.90
34370;BME280;20635;55.812;37.560;2023-02-19T09:11:44;97479.09;;;23.51;21.00
34370;BME280;20635;55.812;37.560;2023-02-19T09:14:10;97475.09;;;23.52;21.07
34370;BME280;20635;55.812;37.560;2023-02-19T09:16:36;97475.09;;;23.52;21.12
34370;BME280;20635;55.812;37.560;2023-02-19T09:19:03;97473.13;;;23.52;21.02
34370;BME280;20635;55.812;37.560;2023-02-19T09:21:28;97463.91;;;23.52;21.12
34370;BME280;20635;55.812;37.560;2023-02-19T09:23:54;97475.91;;;23.52;20.97
34370;BME280;20635;55.812;37.560;2023-02-19T09:26:20;97476.75;;;23.53;20.78
34370;BME280;20635;55.812;37.560;2023-02-19T09:28:46;97469.97;;;23.54;21.25
34370;BME280;20635;55.812;37.560;2023-02-19T09:31:14;97469.16;;;23.53;21.21
34370;BME280;20635;55.812;37.560;2023-02-19T09:33:47;97460.38;;;23.55;21.25
34370;BME280;20635;55.812;37.560;2023-02-19T09:36:14;97466.38;;;23.53;21.01
34370;BME280;20635;55.812;37.560;2023-02-19T09:38:41;97461.59;;;23.54;20.89
34370;BME280;20635;55.812;37.560;2023-02-19T09:41:27;97465.97;;;23.55;20.88
34370;BME280;20635;55.812;37.560;2023-02-19T09:43:54;97451.13;;;23.51;21.17
34370;BME280;20635;55.812;37.560;2023-02-19T09:46:31;97457.97;;;23.53;21.12
34370;BME280;20635;55.812;37.560;2023-02-19T09:51:44;97455.13;;;23.50;21.23
34370;BME280;20635;55.812;37.560;2023-02-19T09:54:30;97448.78;;;23.53;20.77
34370;BME280;20635;55.812;37.560;2023-02-19T09:56:59;97447.13;;;23.48;21.15
34370;BME280;20635;55.812;37.560;2023-02-19T09:59:28;97452.69;;;23.48;20.95
34370;BME280;20635;55.812;37.560;2023-02-19T10:02:10;97444.31;;;23.48;20.83
34370;BME280;20635;55.812;37.560;2023-02-19T10:04:38;97448.78;;;23.53;21.08
34370;BME280;20635;55.812;37.560;2023-02-19T10:07:11;97445.47;;;23.47;21.15
34370;BME280;20635;55.812;37.560;2023-02-19T10:09:37;97440.28;;;23.46;20.89
34370;BME280;20635;55.812;37.560;2023-02-19T10:12:15;97437.47;;;23.46;21.08
34370;BME280;20635;55.812;37.560;2023-02-19T10:14:48;97440.66;;;23.44;21.27
34370;BME280;20635;55.812;37.560;2023-02-19T10:17:25;97434.25;;;23.44;21.24
34370;BME280;20635;55.812;37.560;2023-02-19T10:19:52;97440.59;;;23.41;21.04
34370;BME280;20635;55.812;37.560;2023-02-19T10:22:18;97435.00;;;23.41;21.19
34370;BME280;20635;55.812;37.560;2023-02-19T10:24:49;97436.19;;;23.40;21.35
34370;BME280;20635;55.812;37.560;2023-02-19T10:27:16;97438.97;;;23.40;21.17
34370;BME280;20635;55.812;37.560;2023-02-19T10:29:44;97443.75;;;23.39;20.80
34370;BME280;20635;55.812;37.560;2023-02-19T10:32:13;97444.56;;;23.40;21.19
34370;BME280;20635;55.812;37.560;2023-02-19T10:34:41;97434.53;;;23.39;21.10
34370;BME280;20635;55.812;37.560;2023-02-19T10:37:12;97437.00;;;23.40;21.34
34370;BME280;20635;55.812;37.560;2023-02-19T10:39:46;97440.19;;;23.42;21.16
34370;BME280;20635;55.812;37.560;2023-02-19T10:42:20;97438.59;;;23.41;21.09
34370;BME280;20635;55.812;37.560;2023-02-19T10:44:53;97440.19;;;23.42;21.22
34370;BME280;20635;55.812;37.560;2023-02-19T10:47:23;97443.38;;;23.41;21.10
34370;BME280;20635;55.812;37.560;2023-02-19T10:49:51;97442.19;;;23.42;21.27
34370;BME280;20635;55.812;37.560;2023-02-19T10:54:54;97437.06;;;23.44;21.32
34370;BME280;20635;55.812;37.560;2023-02-19T11:02:42;97432.69;;;23.46;21.42
34370;BME280;20635;55.812;37.560;2023-02-19T11:07:54;97428.34;;;23.49;21.37
34370;BME280;20635;55.812;37.560;2023-02-19T11:10:29;97425.56;;;23.49;21.40
34370;BME280;20635;55.812;37.560;2023-02-19T11:13:05;97413.56;;;23.48;21.15
34370;BME280;20635;55.812;37.560;2023-02-19T11:15:33;97418.31;;;23.48;21.42
34370;BME280;20635;55.812;37.560;2023-02-19T11:20:30;97413.13;;;23.46;21.25
34370;BME280;20635;55.812;37.560;2023-02-19T11:23:00;97412.75;;;23.48;21.48
34370;BME280;20635;55.812;37.560;2023-02-19T11:25:30;97414.72;;;23.47;21.35
34370;BME280;20635;55.812;37.560;2023-02-19T11:28:06;97409.22;;;23.51;21.20
34370;BME280;20635;55.812;37.560;2023-02-19T11:30:36;97406.00;;;23.49;21.17
34370;BME280;20635;55.812;37.560;2023-02-19T11:35:44;97413.56;;;23.48;21.26
34370;BME280;20635;55.812;37.560;2023-02-19T11:38:12;97415.19;;;23.49;21.24
34370;BME280;20635;55.812;37.560;2023-02-19T11:40:48;97417.16;;;23.49;21.40
34370;BME280;20635;55.812;37.560;2023-02-19T11:43:38;97419.19;;;23.52;21.29
34370;BME280;20635;55.812;37.560;2023-02-19T11:48:57;97410.41;;;23.50;21.44
34370;BME280;20635;55.812;37.560;2023-02-19T11:56:35;97400.44;;;23.52;21.47
34370;BME280;20635;55.812;37.560;2023-02-19T11:59:14;97417.59;;;23.51;21.12
34370;BME280;20635;55.812;37.560;2023-02-19T12:10:20;97409.53;;;23.46;21.32
34370;BME280;20635;55.812;37.560;2023-02-19T12:21:19;97392.28;;;23.40;21.19
34370;BME280;20635;55.812;37.560;2023-02-19T12:35:24;97397.41;;;23.38;21.11
34370;BME280;20635;55.812;37.560;2023-02-19T12:38:04;97405.38;;;23.36;21.39
34370;BME280;20635;55.812;37.560;2023-02-19T12:45:43;97396.59;;;23.38;21.41
34370;BME280;20635;55.812;37.560;2023-02-19T12:50:47;97403.63;;;23.28;21.05
34370;BME280;20635;55.812;37.560;2023-02-19T12:55:58;97408.81;;;23.26;21.21
34370;BME280;20635;55.812;37.560;2023-02-19T12:58:57;97406.81;;;23.26;21.36
34370;BME280;20635;55.812;37.560;2023-02-19T13:01:30;97401.16;;;23.23;21.24
34370;BME280;20635;55.812;37.560;2023-02-19T13:04:07;97397.91;;;23.21;21.28
34370;BME280;20635;55.812;37.560;2023-02-19T13:06:45;97407.13;;;23.21;21.09
34370;BME280;20635;55.812;37.560;2023-02-19T13:09:19;97408.66;;;23.19;21.05
34370;BME280;20635;55.812;37.560;2023-02-19T13:12:05;97409.09;;;23.21;21.10
34370;BME280;20635;55.812;37.560;2023-02-19T13:14:40;97412.63;;;23.18;21.16
34370;BME280;20635;55.812;37.560;2023-02-19T13:17:30;97406.66;;;23.19;21.00
34370;BME280;20635;55.812;37.560;2023-02-19T13:23:15;97409.84;;;23.18;21.16
34370;BME280;20635;55.812;37.560;2023-02-19T13:37:15;97407.38;;;23.13;21.58
34370;BME280;20635;55.812;37.560;2023-02-19T13:39:50;97408.97;;;23.14;21.47
34370;BME280;20635;55.812;37.560;2023-02-19T13:42:31;97404.56;;;23.13;21.55
34370;BME280;20635;55.812;37.560;2023-02-19T13:44:58;97402.50;;;23.10;21.47
34370;BME280;20635;55.812;37.560;2023-02-19T13:50:32;97402.56;;;23.13;21.46
34370;BME280;20635;55.812;37.560;2023-02-19T13:53:47;97399.72;;;23.10;21.33
34370;BME280;20635;55.812;37.560;2023-02-19T13:56:00;97396.91;;;23.10;21.25
34370;BME280;20635;55.812;37.560;2023-02-19T14:04:19;97384.94;;;23.09;21.57
34370;BME280;20635;55.812;37.560;2023-02-19T14:09:50;97396.53;;;23.11;21.44
34370;BME280;20635;55.812;37.560;2023-02-19T14:17:40;97387.34;;;23.11;21.65
34370;BME280;20635;55.812;37.560;2023-02-19T14:31:42;97380.16;;;23.10;21.46
34370;BME280;20635;55.812;37.560;2023-02-19T14:33:51;97382.16;;;23.09;21.46
34370;BME280;20635;55.812;37.560;2023-02-19T14:36:34;97380.16;;;23.10;21.52
34370;BME280;20635;55.812;37.560;2023-02-19T14:39:13;97378.97;;;23.11;21.69
34370;BME280;20635;55.812;37.560;2023-02-19T14:41:42;97376.56;;;23.09;21.42
34370;BME280;20635;55.812;37.560;2023-02-19T14:44:21;97371.78;;;23.10;21.34
34370;BME280;20635;55.812;37.560;2023-02-19T14:46:56;97373.38;;;23.11;21.26
34370;BME280;20635;55.812;37.560;2023-02-19T14:49:28;97367.00;;;23.10;21.59
34370;BME280;20635;55.812;37.560;2023-02-19T14:51:56;97373.06;;;23.16;21.57
34370;BME280;20635;55.812;37.560;2023-02-19T14:54:42;97359.88;;;23.13;21.49
34370;BME280;20635;55.812;37.560;2023-02-19T14:57:21;97356.63;;;23.11;21.23
34370;BME280;20635;55.812;37.560;2023-02-19T14:59:56;97365.81;;;23.11;21.65
34370;BME280;20635;55.812;37.560;2023-02-19T15:02:24;97362.59;;;23.09;21.47
34370;BME280;20635;55.812;37.560;2023-02-19T15:04:54;97369.38;;;23.08;21.41
34370;BME280;20635;55.812;37.560;2023-02-19T15:07:29;97363.41;;;23.10;21.52
34370;BME280;20635;55.812;37.560;2023-02-19T15:09:59;97361.78;;;23.09;21.54
34370;BME280;20635;55.812;37.560;2023-02-19T15:12:44;97357.41;;;23.08;21.38
34370;BME280;20635;55.812;37.560;2023-02-19T15:15:22;97355.41;;;23.08;21.47
34370;BME280;20635;55.812;37.560;2023-02-19T15:17:52;97353.34;;;23.05;21.64
34370;BME280;20635;55.812;37.560;2023-02-19T15:20:24;97356.94;;;23.06;21.43
34370;BME280;20635;55.812;37.560;2023-02-19T15:22:57;97356.13;;;23.05;21.45
34370;BME280;20635;55.812;37.560;2023-02-19T15:25:37;97358.13;;;23.04;21.76
34370;BME280;20635;55.812;37.560;2023-02-19T15:33:22;97350.94;;;23.03;21.53